Terminal Aerodrome Forecast
Issued by NWS

Home | Current Version | Previous Version | Text Only | Print | Product List | Glossary On
Versions: 1 2 3 4 5 6 7 8 9 10 11 12 13 14 15 16 17 18 19 20 21 22 23 24 25 26
187
FTUS43 KDLH 251903 AAA
TAFBRD
TAF AMD
KBRD 251903Z 2519/2618 25013KT P6SM BKN040 BKN060
     FM260000 26007KT P6SM -SN BKN040
     FM260900 VRB04KT 6SM -SN OVC008
     FM261200 29004KT 4SM -SN OVC008
     FM261600 30008KT P6SM BKN020=

USA.gov is the U.S. government's official web portal to all federal, state and local government web resources and services.